createdAt,value
2018-07-15T00:00:27.934Z,19.77
2018-07-15T00:01:27.923Z,19.77
2018-07-15T00:02:27.910Z,19.76
2018-07-15T00:03:27.902Z,19.78
2018-07-15T00:04:27.900Z,19.73
2018-07-15T00:05:27.874Z,19.77
2018-07-15T00:06:27.862Z,19.74
2018-07-15T00:07:27.865Z,19.71
2018-07-15T00:08:27.844Z,19.65
2018-07-15T00:09:27.830Z,19.63
2018-07-15T00:10:27.830Z,19.63
2018-07-15T00:11:27.809Z,19.62
2018-07-15T00:12:27.791Z,19.73
2018-07-15T00:13:27.784Z,19.63
2018-07-15T00:14:27.803Z,19.59
2018-07-15T00:15:27.763Z,19.61
2018-07-15T00:16:27.753Z,19.62
2018-07-15T00:17:27.737Z,19.58
2018-07-15T00:18:27.726Z,19.58
2018-07-15T00:19:27.715Z,19.59
2018-07-15T00:20:27.717Z,19.56
2018-07-15T00:21:27.689Z,19.56
2018-07-15T00:22:27.675Z,19.41
2018-07-15T00:23:27.672Z,19.41
2018-07-15T00:24:27.654Z,19.39
2018-07-15T00:25:27.657Z,19.36
2018-07-15T00:26:27.631Z,19.36
2018-07-15T00:27:27.621Z,19.26
2018-07-15T00:28:27.611Z,19.32
2018-07-15T00:29:27.598Z,19.25
2018-07-15T00:30:27.599Z,19.19
2018-07-15T00:31:27.573Z,19.14
2018-07-15T00:32:27.576Z,19.07
2018-07-15T00:33:27.555Z,18.98
2018-07-15T00:34:27.539Z,18.98
2018-07-15T00:35:27.552Z,18.94
2018-07-15T00:36:27.513Z,18.87
2018-07-15T00:37:27.497Z,18.85
2018-07-15T00:38:27.490Z,18.82
2018-07-15T00:39:27.481Z,18.72
2018-07-15T00:40:27.465Z,18.70
2018-07-15T00:41:27.472Z,18.75
2018-07-15T00:42:27.446Z,18.78
2018-07-15T00:43:27.431Z,18.70
2018-07-15T00:44:27.416Z,18.62
2018-07-15T00:45:27.405Z,18.67
2018-07-15T00:46:27.411Z,18.66
2018-07-15T00:47:27.398Z,18.63
2018-07-15T00:48:27.372Z,18.55
2018-07-15T00:49:27.360Z,18.54
2018-07-15T00:50:27.351Z,18.51
2018-07-15T00:51:27.360Z,18.57
2018-07-15T00:52:27.321Z,18.54
2018-07-15T00:53:27.312Z,18.55
2018-07-15T00:54:27.298Z,18.52
2018-07-15T00:55:27.287Z,18.44
2018-07-15T00:56:27.274Z,18.51
2018-07-15T00:57:27.277Z,18.60
2018-07-15T00:58:27.247Z,18.67
2018-07-15T00:59:27.240Z,18.54
2018-07-15T01:00:27.229Z,18.65
2018-07-15T01:01:27.216Z,18.60
2018-07-15T01:02:27.219Z,18.65
2018-07-15T01:03:27.189Z,18.63
2018-07-15T01:04:27.176Z,18.55
2018-07-15T01:05:27.165Z,18.60
2018-07-15T01:06:27.154Z,18.51
2018-07-15T01:07:27.137Z,18.44
2018-07-15T01:08:27.147Z,18.41
2018-07-15T01:09:27.112Z,18.35
2018-07-15T01:10:27.106Z,18.21
2018-07-15T01:11:27.092Z,18.26
2018-07-15T01:12:27.079Z,18.14
2018-07-15T01:13:27.084Z,18.17
2018-07-15T01:14:27.060Z,18.12
2018-07-15T01:15:27.042Z,18.02
2018-07-15T01:16:27.026Z,18.07
2018-07-15T01:17:27.024Z,18.07
2018-07-15T01:18:27.019Z,17.90
2018-07-15T01:19:26.994Z,17.96
2018-07-15T01:20:26.982Z,17.95
2018-07-15T01:21:26.968Z,17.89
2018-07-15T01:22:26.959Z,17.93
2018-07-15T01:23:26.964Z,17.93
2018-07-15T01:24:26.950Z,17.87
2018-07-15T01:25:26.924Z,17.78
2018-07-15T01:26:26.913Z,17.81
2018-07-15T01:27:26.894Z,17.79
2018-07-15T01:28:26.896Z,17.71
2018-07-15T01:29:26.867Z,17.55
2018-07-15T01:30:26.872Z,17.58
2018-07-15T01:31:26.848Z,17.49
2018-07-15T01:32:26.836Z,17.51
2018-07-15T01:33:26.820Z,17.41
2018-07-15T01:34:26.807Z,17.49
2018-07-15T01:35:26.807Z,17.43
2018-07-15T01:36:26.783Z,17.43
2018-07-15T01:37:26.770Z,17.44
2018-07-15T01:38:26.761Z,17.49
2018-07-15T01:39:26.745Z,17.43
2018-07-15T01:40:26.749Z,17.40
2018-07-15T01:41:26.723Z,17.28
2018-07-15T01:42:26.710Z,17.28
2018-07-15T01:43:26.695Z,17.22
2018-07-15T01:44:26.681Z,17.16
2018-07-15T01:45:26.687Z,17.14
2018-07-15T01:46:26.657Z,17.22
2018-07-15T01:47:26.642Z,17.16
2018-07-15T01:48:26.630Z,17.08
2018-07-15T01:49:26.618Z,17.04
2018-07-15T01:50:26.602Z,17.12
2018-07-15T01:51:26.603Z,17.11
2018-07-15T01:52:26.579Z,17.12
2018-07-15T01:53:26.563Z,17.03
2018-07-15T01:54:26.556Z,17.04
2018-07-15T01:55:26.541Z,17.06
2018-07-15T01:56:26.538Z,17.11
2018-07-15T01:57:26.515Z,17.00
2018-07-15T01:58:26.502Z,16.96
2018-07-15T01:59:26.489Z,16.93
2018-07-15T02:00:26.497Z,17.08
2018-07-15T02:01:26.478Z,16.98
2018-07-15T02:02:26.453Z,16.94
2018-07-15T02:03:26.440Z,16.89
2018-07-15T02:04:26.439Z,17.00
2018-07-15T02:05:26.426Z,17.00
2018-07-15T02:06:26.396Z,16.93
2018-07-15T02:07:26.398Z,16.93
2018-07-15T02:08:26.374Z,16.86
2018-07-15T02:09:26.363Z,16.88
2018-07-15T02:10:26.349Z,16.83
2018-07-15T02:11:26.333Z,16.91
2018-07-15T02:12:47.332Z,16.91
2018-07-15T02:13:26.308Z,16.98
2018-07-15T02:14:26.298Z,16.98
2018-07-15T02:15:26.295Z,17.11
2018-07-15T02:16:26.270Z,17.14
2018-07-15T02:17:26.269Z,17.18
2018-07-15T02:18:26.246Z,17.16
2018-07-15T02:19:26.249Z,17.15
2018-07-15T02:20:26.219Z,17.15
2018-07-15T02:21:26.205Z,17.06
2018-07-15T02:22:26.192Z,17.00
2018-07-15T02:23:26.195Z,16.94
2018-07-15T02:24:26.165Z,16.89
2018-07-15T02:25:26.150Z,16.89
2018-07-15T02:26:26.162Z,16.83
2018-07-15T02:27:26.130Z,16.88
2018-07-15T02:28:26.114Z,16.97
2018-07-15T02:29:26.113Z,16.96
2018-07-15T02:30:26.096Z,16.85
2018-07-15T02:31:26.073Z,16.83
2018-07-15T02:32:26.078Z,16.86
2018-07-15T02:33:26.051Z,16.75
2018-07-15T02:34:26.033Z,16.76
2018-07-15T02:35:26.030Z,16.78
2018-07-15T02:36:26.025Z,16.73
2018-07-15T02:37:26.014Z,16.68
2018-07-15T02:38:25.988Z,16.67
2018-07-15T02:39:25.974Z,16.75
2018-07-15T02:40:25.958Z,16.71
2018-07-15T02:41:25.945Z,16.58
2018-07-15T02:42:25.933Z,16.57
2018-07-15T02:43:25.933Z,16.52
2018-07-15T02:44:25.904Z,16.57
2018-07-15T02:45:25.894Z,16.42
2018-07-15T02:46:25.882Z,16.53
2018-07-15T02:47:25.866Z,16.45
2018-07-15T02:48:25.852Z,16.52
2018-07-15T02:49:25.850Z,16.41
2018-07-15T02:50:25.824Z,16.46
2018-07-15T02:51:25.812Z,16.39
2018-07-15T02:52:25.800Z,16.45
2018-07-15T02:53:25.806Z,16.43
2018-07-15T02:54:25.792Z,16.41
2018-07-15T02:55:25.761Z,16.34
2018-07-15T02:56:25.749Z,16.35
2018-07-15T02:57:25.730Z,16.35
2018-07-15T02:58:25.720Z,16.39
2018-07-15T02:59:25.712Z,16.41
2018-07-15T03:00:25.711Z,16.27
2018-07-15T03:01:25.680Z,16.39
2018-07-15T03:02:25.671Z,16.38
2018-07-15T03:03:25.656Z,16.31
2018-07-15T03:04:25.641Z,16.38
2018-07-15T03:05:25.625Z,16.38
2018-07-15T03:06:25.629Z,16.35
2018-07-15T03:07:25.597Z,16.27
2018-07-15T03:08:25.587Z,16.39
2018-07-15T03:09:25.574Z,16.27
2018-07-15T03:10:25.579Z,16.27
2018-07-15T03:11:25.553Z,16.41
2018-07-15T03:12:25.531Z,16.35
2018-07-15T03:13:25.525Z,16.48
2018-07-15T03:14:25.554Z,16.34
2018-07-15T03:15:25.515Z,16.33
2018-07-15T03:16:25.494Z,16.33
2018-07-15T03:17:25.567Z,16.34
2018-07-15T03:18:25.454Z,16.39
2018-07-15T03:19:25.442Z,16.35
2018-07-15T03:20:25.429Z,16.35
2018-07-15T03:21:25.441Z,16.33
2018-07-15T03:22:25.402Z,16.34
2018-07-15T03:23:25.387Z,16.33
2018-07-15T03:24:25.373Z,16.38
2018-07-15T03:25:25.363Z,16.41
2018-07-15T03:26:25.346Z,16.43
2018-07-15T03:27:25.347Z,16.42
2018-07-15T03:28:25.321Z,16.42
2018-07-15T03:29:25.302Z,16.49
2018-07-15T03:30:25.295Z,16.52
2018-07-15T03:31:25.279Z,16.57
2018-07-15T03:32:25.286Z,16.61
2018-07-15T03:33:25.251Z,16.61
2018-07-15T03:34:25.239Z,16.68
2018-07-15T03:35:25.225Z,16.66
2018-07-15T03:36:25.212Z,16.75
2018-07-15T03:37:25.213Z,16.60
2018-07-15T03:38:25.187Z,16.53
2018-07-15T03:39:25.171Z,16.58
2018-07-15T03:40:25.158Z,16.58
2018-07-15T03:41:25.144Z,16.64
2018-07-15T03:42:25.146Z,16.61
2018-07-15T03:43:25.142Z,16.66
2018-07-15T03:44:25.106Z,16.73
2018-07-15T03:45:25.092Z,16.68
2018-07-15T03:46:25.075Z,16.70
2018-07-15T03:47:25.065Z,16.68
2018-07-15T03:48:25.050Z,16.75
2018-07-15T03:49:25.050Z,16.78
2018-07-15T03:50:25.027Z,16.73
2018-07-15T03:51:25.016Z,16.78
2018-07-15T03:52:25.009Z,16.89
2018-07-15T03:53:24.982Z,16.85
2018-07-15T03:54:24.970Z,16.88
2018-07-15T03:55:24.972Z,16.83
2018-07-15T03:56:24.944Z,16.81
2018-07-15T03:57:24.928Z,16.85
2018-07-15T03:58:24.916Z,16.98
2018-07-15T03:59:24.904Z,16.94
2018-07-15T04:00:24.906Z,16.93
2018-07-15T04:01:24.877Z,16.97
2018-07-15T04:02:24.868Z,17.01
2018-07-15T04:03:24.847Z,16.94
2018-07-15T04:04:24.838Z,16.96
2018-07-15T04:05:24.844Z,16.83
2018-07-15T04:06:24.813Z,16.96
2018-07-15T04:07:24.798Z,16.97
2018-07-15T04:08:24.789Z,16.98
2018-07-15T04:09:24.772Z,16.94
2018-07-15T04:10:24.759Z,16.96
2018-07-15T04:11:24.762Z,16.91
2018-07-15T04:12:24.749Z,16.93
2018-07-15T04:13:24.717Z,17.00
2018-07-15T04:14:24.705Z,17.07
2018-07-15T04:15:24.694Z,17.03
2018-07-15T04:16:24.693Z,17.00
2018-07-15T04:17:24.665Z,17.11
2018-07-15T04:18:24.652Z,17.06
2018-07-15T04:19:24.641Z,17.07
2018-07-15T04:20:24.630Z,17.14
2018-07-15T04:21:24.629Z,17.15
2018-07-15T04:22:24.602Z,17.16
2018-07-15T04:23:24.587Z,17.21
2018-07-15T04:24:24.573Z,17.21
2018-07-15T04:25:24.559Z,17.21
2018-07-15T04:26:24.562Z,17.15
2018-07-15T04:27:24.549Z,17.30
2018-07-15T04:28:24.608Z,17.31
2018-07-15T04:29:24.509Z,17.36
2018-07-15T04:30:24.498Z,17.28
2018-07-15T04:31:24.500Z,17.40
2018-07-15T04:32:24.470Z,17.41
2018-07-15T04:33:24.457Z,17.40
2018-07-15T04:34:24.444Z,17.55
2018-07-15T04:35:24.437Z,17.58
2018-07-15T04:36:24.418Z,17.84
2018-07-15T04:37:24.422Z,17.99
2018-07-15T04:38:24.411Z,18.07
2018-07-15T04:39:24.380Z,18.15
2018-07-15T04:40:24.371Z,18.20
2018-07-15T04:41:24.350Z,18.39
2018-07-15T04:42:24.335Z,18.51
2018-07-15T04:43:24.328Z,18.52
2018-07-15T04:44:24.331Z,18.88
2018-07-15T04:45:24.297Z,18.99
2018-07-15T04:46:24.289Z,19.16
2018-07-15T04:47:24.306Z,19.36
2018-07-15T04:48:24.264Z,19.51
2018-07-15T04:49:24.256Z,19.65
2018-07-15T04:50:24.239Z,19.83
2018-07-15T04:51:24.226Z,19.95
2018-07-15T04:52:24.217Z,20.03
2018-07-15T04:53:24.230Z,20.14
2018-07-15T04:54:24.194Z,20.13
2018-07-15T04:55:24.185Z,20.32
2018-07-15T04:56:24.166Z,20.32
2018-07-15T04:57:24.154Z,20.28
2018-07-15T04:58:24.138Z,20.28
2018-07-15T04:59:24.144Z,20.24
2018-07-15T05:00:24.131Z,20.29
2018-07-15T05:01:24.124Z,20.18
2018-07-15T05:02:24.093Z,20.17
2018-07-15T05:03:24.086Z,20.11
2018-07-15T05:04:24.083Z,20.13
2018-07-15T05:05:24.058Z,20.06
2018-07-15T05:06:24.061Z,20.06
2018-07-15T05:07:24.036Z,19.98
2018-07-15T05:08:24.023Z,19.99
2018-07-15T05:09:24.012Z,19.96
2018-07-15T05:10:24.014Z,19.92
2018-07-15T05:11:24.835Z,19.86
2018-07-15T05:12:23.978Z,19.84
2018-07-15T05:13:23.966Z,19.74
2018-07-15T05:14:23.952Z,19.73
2018-07-15T05:15:23.959Z,19.65
2018-07-15T05:16:23.945Z,19.56
2018-07-15T05:17:23.924Z,19.41
2018-07-15T05:18:23.930Z,19.43
2018-07-15T05:19:23.899Z,19.33
2018-07-15T05:20:23.885Z,19.37
2018-07-15T05:21:23.891Z,19.37
2018-07-15T05:22:23.863Z,19.33
2018-07-15T05:23:23.868Z,19.31
2018-07-15T05:24:23.840Z,19.21
2018-07-15T05:25:23.828Z,19.21
2018-07-15T05:26:23.836Z,19.19
2018-07-15T05:27:23.807Z,19.13
2018-07-15T05:28:23.799Z,19.21
2018-07-15T05:29:23.802Z,19.08
2018-07-15T05:30:23.773Z,19.14
2018-07-15T05:31:23.762Z,19.13
2018-07-15T05:32:23.764Z,19.19
2018-07-15T05:33:23.745Z,19.23
2018-07-15T05:34:23.726Z,19.31
2018-07-15T05:35:23.716Z,19.25
2018-07-15T05:36:23.707Z,19.31
2018-07-15T05:37:23.709Z,19.37
2018-07-15T05:38:23.685Z,19.43
2018-07-15T05:39:23.671Z,19.48
2018-07-15T05:40:23.669Z,19.50
2018-07-15T05:41:23.644Z,19.48
2018-07-15T05:42:23.650Z,19.46
2018-07-15T05:43:23.626Z,19.61
2018-07-15T05:44:23.699Z,19.73
2018-07-15T05:45:24.498Z,19.74
2018-07-15T05:46:23.602Z,19.78
2018-07-15T05:47:23.577Z,19.96
2018-07-15T05:48:23.562Z,20.03
2018-07-15T05:49:23.552Z,20.11
2018-07-15T05:50:23.560Z,20.36
2018-07-15T05:51:23.548Z,20.42
2018-07-15T05:52:23.519Z,20.43
2018-07-15T05:53:23.506Z,20.54
2018-07-15T05:54:23.498Z,20.47
2018-07-15T05:55:23.498Z,20.41
2018-07-15T05:56:23.468Z,20.41
2018-07-15T05:57:23.459Z,20.47
2018-07-15T05:58:23.447Z,20.52
2018-07-15T05:59:44.457Z,20.26
2018-07-15T06:00:23.425Z,20.31
2018-07-15T06:01:23.421Z,20.14
2018-07-15T06:02:23.403Z,19.99
2018-07-15T06:03:23.408Z,19.95
2018-07-15T06:04:23.381Z,19.94
2018-07-15T06:05:23.385Z,19.91
2018-07-15T06:06:23.376Z,19.87
2018-07-15T06:07:23.347Z,19.88
2018-07-15T06:08:23.336Z,19.94
2018-07-15T06:09:23.322Z,20.03
2018-07-15T06:10:23.312Z,20.03
2018-07-15T06:11:23.299Z,20.11
2018-07-15T06:12:23.301Z,20.14
2018-07-15T06:13:23.276Z,20.16
2018-07-15T06:14:23.264Z,20.21
2018-07-15T06:15:23.251Z,20.31
2018-07-15T06:16:23.251Z,20.43
2018-07-15T06:17:23.231Z,20.51
2018-07-15T06:18:23.219Z,20.55
2018-07-15T06:19:23.221Z,20.61
2018-07-15T06:20:23.196Z,20.59
2018-07-15T06:21:23.197Z,20.61
2018-07-15T06:22:23.188Z,20.66
2018-07-15T06:23:23.160Z,20.69
2018-07-15T06:24:23.146Z,20.77
2018-07-15T06:25:23.138Z,20.94
2018-07-15T06:26:23.139Z,21.03
2018-07-15T06:27:23.117Z,21.17
2018-07-15T06:28:23.103Z,21.27
2018-07-15T06:29:23.092Z,21.24
2018-07-15T06:30:23.102Z,21.25
2018-07-15T06:31:23.082Z,21.21
2018-07-15T06:32:23.056Z,21.24
2018-07-15T06:33:23.056Z,21.37
2018-07-15T06:34:23.035Z,21.43
2018-07-15T06:35:23.039Z,21.53
2018-07-15T06:36:23.008Z,21.68
2018-07-15T06:37:23.016Z,21.83
2018-07-15T06:38:22.991Z,22.03
2018-07-15T06:39:22.978Z,22.09
2018-07-15T06:40:22.965Z,22.24
2018-07-15T06:41:22.979Z,22.37
2018-07-15T06:42:22.949Z,22.35
2018-07-15T06:43:22.950Z,22.49
2018-07-15T06:44:22.923Z,22.61
2018-07-15T06:45:22.911Z,22.47
2018-07-15T06:46:22.925Z,22.57
2018-07-15T06:47:22.894Z,22.65
2018-07-15T06:48:22.877Z,22.68
2018-07-15T06:49:22.875Z,22.49
2018-07-15T06:50:22.858Z,22.49
2018-07-15T06:51:22.848Z,22.54
2018-07-15T06:52:22.853Z,22.67
2018-07-15T06:53:22.824Z,22.83
2018-07-15T06:54:22.815Z,22.86
2018-07-15T06:55:22.819Z,23.00
2018-07-15T06:56:22.794Z,23.02
2018-07-15T06:57:22.799Z,23.10
2018-07-15T06:58:22.773Z,23.20
2018-07-15T06:59:22.763Z,23.28
2018-07-15T07:00:22.752Z,23.20
2018-07-15T07:01:22.781Z,23.33
2018-07-15T07:02:22.741Z,23.36
2018-07-15T07:03:22.720Z,23.36
2018-07-15T07:04:22.708Z,23.40
2018-07-15T07:05:22.710Z,23.46
2018-07-15T07:06:22.687Z,23.46
2018-07-15T07:07:22.798Z,23.46
2018-07-15T07:08:22.666Z,23.51
2018-07-15T07:09:22.660Z,23.46
2018-07-15T07:10:22.640Z,23.54
2018-07-15T07:11:22.633Z,23.51
2018-07-15T07:12:22.639Z,23.54
2018-07-15T07:13:22.630Z,23.50
2018-07-15T07:14:22.605Z,23.39
2018-07-15T07:15:22.592Z,23.38
2018-07-15T07:16:22.579Z,23.43
2018-07-15T07:17:22.570Z,23.47
2018-07-15T07:18:22.576Z,23.50
2018-07-15T07:19:22.551Z,23.55
2018-07-15T07:20:22.571Z,23.70
2018-07-15T07:21:22.532Z,23.63
2018-07-15T07:22:22.522Z,23.72
2018-07-15T07:23:22.508Z,23.83
2018-07-15T07:24:22.547Z,23.85
2018-07-15T07:25:22.494Z,23.93
2018-07-15T07:26:22.484Z,23.91
2018-07-15T07:27:22.469Z,23.90
2018-07-15T07:28:22.453Z,23.90
2018-07-15T07:29:22.462Z,23.80
2018-07-15T07:30:22.450Z,23.73
2018-07-15T07:31:22.436Z,23.79
2018-07-15T07:32:22.414Z,23.78
2018-07-15T07:33:22.410Z,23.84
2018-07-15T07:34:22.398Z,23.93
2018-07-15T07:35:22.446Z,24.00
2018-07-15T07:36:22.376Z,24.05
2018-07-15T07:37:22.368Z,24.20
2018-07-15T07:38:22.358Z,24.20
2018-07-15T07:39:22.346Z,24.43
2018-07-15T07:40:22.381Z,24.35
2018-07-15T07:41:22.424Z,24.46
2018-07-15T07:42:22.315Z,24.58
2018-07-15T07:43:22.308Z,24.64
2018-07-15T07:44:22.296Z,24.62
2018-07-15T07:45:22.281Z,24.60
2018-07-15T07:46:22.288Z,24.45
2018-07-15T07:47:22.268Z,24.46
2018-07-15T07:48:22.251Z,24.42
2018-07-15T07:49:22.241Z,24.46
2018-07-15T07:50:22.235Z,24.57
2018-07-15T07:51:22.244Z,24.62
2018-07-15T07:52:22.231Z,24.69
2018-07-15T07:53:22.273Z,24.77
2018-07-15T07:54:22.195Z,24.90
2018-07-15T07:55:22.181Z,24.96
2018-07-15T07:56:22.173Z,25.06
2018-07-15T07:57:43.206Z,25.09
2018-07-15T07:58:22.152Z,25.03
2018-07-15T07:59:22.140Z,25.00
2018-07-15T08:00:22.134Z,25.21
2018-07-15T08:01:22.127Z,25.18
2018-07-15T08:02:22.131Z,25.27
2018-07-15T08:03:22.122Z,25.30
2018-07-15T08:04:22.094Z,25.46
2018-07-15T08:05:22.086Z,25.55
2018-07-15T08:06:22.075Z,25.54
2018-07-15T08:07:22.079Z,25.47
2018-07-15T08:08:22.075Z,25.50
2018-07-15T08:09:22.047Z,25.39
2018-07-15T08:10:22.037Z,25.39
2018-07-15T08:11:22.028Z,25.33
2018-07-15T08:12:22.013Z,25.35
2018-07-15T08:13:22.033Z,25.39
2018-07-15T08:14:21.999Z,25.58
2018-07-15T08:15:21.997Z,25.62
2018-07-15T08:16:21.980Z,25.73
2018-07-15T08:17:21.968Z,25.83
2018-07-15T08:18:21.958Z,25.94
2018-07-15T08:19:21.972Z,25.94
2018-07-15T08:20:21.933Z,26.06
2018-07-15T08:21:21.929Z,26.02
2018-07-15T08:22:21.920Z,26.05
2018-07-15T08:23:21.912Z,26.10
2018-07-15T08:24:21.915Z,26.10
2018-07-15T08:25:21.894Z,26.10
2018-07-15T08:26:21.881Z,25.98
2018-07-15T08:27:21.875Z,25.98
2018-07-15T08:28:21.989Z,25.94
2018-07-15T08:29:21.872Z,26.10
2018-07-15T08:30:21.845Z,26.06
2018-07-15T08:31:21.833Z,26.10
2018-07-15T08:32:21.826Z,25.99
2018-07-15T08:33:21.833Z,26.13
2018-07-15T08:34:21.807Z,26.07
2018-07-15T08:35:21.811Z,26.21
2018-07-15T08:36:21.787Z,26.20
2018-07-15T08:37:21.778Z,26.39
2018-07-15T08:38:21.772Z,26.51
2018-07-15T08:39:21.759Z,26.51
2018-07-15T08:40:21.766Z,26.50
2018-07-15T08:41:21.740Z,26.57
2018-07-15T08:42:21.734Z,26.72
2018-07-15T08:43:21.727Z,26.67
2018-07-15T08:44:21.713Z,26.69
2018-07-15T08:45:21.721Z,26.70
2018-07-15T08:46:21.761Z,26.89
2018-07-15T08:47:21.686Z,26.87
2018-07-15T08:48:21.675Z,26.88
2018-07-15T08:49:21.666Z,26.95
2018-07-15T08:50:21.673Z,27.00
2018-07-15T08:51:21.649Z,27.14
2018-07-15T08:52:21.641Z,27.32
2018-07-15T08:53:21.633Z,27.28
2018-07-15T08:54:21.616Z,27.37
2018-07-15T08:55:21.613Z,27.49
2018-07-15T08:56:21.618Z,27.66
2018-07-15T08:57:21.606Z,27.84
2018-07-15T08:58:21.582Z,28.07
2018-07-15T08:59:21.581Z,28.18
2018-07-15T09:00:21.567Z,28.39
2018-07-15T09:01:21.552Z,28.68
2018-07-15T09:02:21.562Z,29.00
2018-07-15T09:03:21.627Z,29.41
2018-07-15T09:04:21.529Z,29.74
2018-07-15T09:05:21.534Z,30.29
2018-07-15T09:06:21.513Z,30.47
2018-07-15T09:07:21.504Z,30.80
2018-07-15T09:08:21.493Z,30.92
2018-07-15T09:09:21.502Z,31.43
2018-07-15T09:10:21.482Z,31.35
2018-07-15T09:11:21.470Z,31.25
2018-07-15T09:12:21.469Z,31.69
2018-07-15T09:13:21.454Z,31.86
2018-07-15T09:14:21.457Z,32.14
2018-07-15T09:15:21.450Z,32.22
2018-07-15T09:16:21.425Z,32.56
2018-07-15T09:17:21.431Z,32.77
2018-07-15T09:18:21.463Z,32.84
2018-07-15T09:19:21.406Z,32.44
2018-07-15T09:20:21.393Z,32.74
2018-07-15T09:21:21.392Z,32.79
2018-07-15T09:22:21.387Z,32.70
2018-07-15T09:23:21.406Z,32.89
2018-07-15T09:24:21.358Z,33.00
2018-07-15T09:25:21.352Z,33.23
2018-07-15T09:26:21.342Z,33.35
2018-07-15T09:27:21.338Z,33.42
2018-07-15T09:28:21.326Z,33.45
2018-07-15T09:29:21.336Z,33.72
2018-07-15T09:30:21.313Z,33.41
2018-07-15T09:31:21.311Z,33.56
2018-07-15T09:32:21.305Z,33.68
2018-07-15T09:33:21.294Z,33.57
2018-07-15T09:34:21.292Z,33.44
2018-07-15T09:35:21.314Z,33.47
2018-07-15T09:36:21.282Z,33.79
2018-07-15T09:37:21.281Z,34.00
2018-07-15T09:38:21.278Z,33.94
2018-07-15T09:39:21.271Z,33.95
2018-07-15T09:40:21.270Z,33.91
2018-07-15T09:41:21.279Z,34.00
2018-07-15T09:42:21.261Z,34.02
2018-07-15T09:43:22.056Z,34.19
2018-07-15T09:44:21.259Z,34.22
2018-07-15T09:45:21.275Z,34.16
2018-07-15T09:46:21.250Z,33.98
2018-07-15T09:47:21.265Z,34.03
2018-07-15T09:48:21.256Z,33.91
2018-07-15T09:49:21.252Z,33.82
2018-07-15T09:50:21.276Z,33.76
2018-07-15T09:51:21.249Z,33.93
2018-07-15T09:52:21.245Z,34.06
2018-07-15T09:53:21.244Z,33.86
2018-07-15T09:54:21.244Z,33.71
2018-07-15T09:55:21.245Z,33.38
2018-07-15T09:56:21.260Z,33.68
2018-07-15T09:57:21.241Z,33.66
2018-07-15T09:58:21.263Z,33.63
2018-07-15T09:59:21.243Z,33.91
2018-07-15T10:00:21.241Z,34.28
2018-07-15T10:01:21.251Z,34.59
2018-07-15T10:02:21.260Z,34.17
2018-07-15T10:03:21.244Z,34.30
2018-07-15T10:04:21.244Z,34.42
2018-07-15T10:05:21.255Z,34.49
2018-07-15T10:06:21.265Z,34.31
2018-07-15T10:07:21.245Z,34.17
2018-07-15T10:08:21.261Z,34.17
2018-07-15T10:09:21.245Z,34.17
2018-07-15T10:10:21.252Z,34.03
2018-07-15T10:11:21.248Z,34.10
2018-07-15T10:12:21.243Z,34.10
2018-07-15T10:13:21.265Z,34.24
2018-07-15T10:14:21.251Z,34.54
2018-07-15T10:15:21.248Z,33.84
2018-07-15T10:16:21.246Z,33.76
2018-07-15T10:17:21.250Z,33.19
2018-07-15T10:18:21.308Z,33.37
2018-07-15T10:19:21.268Z,33.65
2018-07-15T10:20:21.251Z,33.78
2018-07-15T10:21:21.255Z,33.84
2018-07-15T10:22:21.271Z,34.17
2018-07-15T10:23:21.272Z,34.43
2018-07-15T10:24:21.273Z,34.47
2018-07-15T10:25:21.260Z,34.54
2018-07-15T10:26:21.261Z,34.70
2018-07-15T10:27:21.261Z,34.72
2018-07-15T10:28:21.265Z,34.39
2018-07-15T10:29:21.281Z,34.13
2018-07-15T10:30:21.268Z,34.06
2018-07-15T10:31:21.270Z,34.08
2018-07-15T10:32:21.270Z,34.22
2018-07-15T10:33:21.271Z,34.27
2018-07-15T10:34:21.289Z,34.15
2018-07-15T10:35:21.276Z,34.52
2018-07-15T10:36:21.277Z,34.69
2018-07-15T10:37:21.297Z,34.73
2018-07-15T10:38:21.295Z,34.65
2018-07-15T10:39:21.287Z,34.65
2018-07-15T10:40:21.286Z,34.92
2018-07-15T10:41:21.300Z,34.64
2018-07-15T10:42:21.288Z,34.65
2018-07-15T10:43:21.293Z,34.77
2018-07-15T10:44:21.294Z,34.61
2018-07-15T10:45:21.296Z,34.80
2018-07-15T10:46:21.312Z,34.97
2018-07-15T10:47:21.299Z,34.94
2018-07-15T10:48:21.299Z,35.15
2018-07-15T10:49:21.300Z,35.15
2018-07-15T10:50:21.303Z,35.04
2018-07-15T10:51:21.306Z,35.07
2018-07-15T10:52:21.327Z,35.06
2018-07-15T10:53:21.312Z,34.99
2018-07-15T10:54:21.313Z,35.23
2018-07-15T10:55:21.314Z,35.37
2018-07-15T10:56:21.331Z,35.31
2018-07-15T10:57:21.320Z,35.56
2018-07-15T10:58:21.343Z,35.55
2018-07-15T10:59:21.324Z,35.45
2018-07-15T11:00:21.330Z,35.34
2018-07-15T11:01:21.329Z,35.31
2018-07-15T11:02:21.347Z,35.38
2018-07-15T11:03:21.389Z,35.33
2018-07-15T11:04:21.340Z,35.11
2018-07-15T11:05:21.339Z,35.02
2018-07-15T11:06:21.402Z,34.96
2018-07-15T11:07:21.348Z,34.46
2018-07-15T11:08:21.365Z,34.21
2018-07-15T11:09:21.382Z,34.46
2018-07-15T11:10:21.362Z,34.81
2018-07-15T11:11:21.359Z,34.84
2018-07-15T11:12:21.360Z,34.85
2018-07-15T11:13:21.443Z,34.96
2018-07-15T11:14:21.384Z,34.89
2018-07-15T11:15:21.377Z,34.88
2018-07-15T11:16:21.381Z,34.65
2018-07-15T11:17:21.377Z,34.88
2018-07-15T11:18:21.395Z,34.84
2018-07-15T11:19:21.386Z,34.85
2018-07-15T11:20:21.389Z,34.89
2018-07-15T11:21:21.387Z,34.84
2018-07-15T11:22:21.423Z,34.77
2018-07-15T11:23:21.396Z,34.75
2018-07-15T11:24:21.407Z,34.15
2018-07-15T11:25:21.418Z,33.98
2018-07-15T11:26:21.407Z,34.28
2018-07-15T11:27:21.405Z,34.66
2018-07-15T11:28:21.408Z,34.84
2018-07-15T11:29:21.421Z,34.99
2018-07-15T11:30:21.416Z,34.96
2018-07-15T11:31:21.458Z,34.89
2018-07-15T11:32:21.645Z,34.72
2018-07-15T11:33:21.442Z,34.39
2018-07-15T11:34:21.430Z,33.98
2018-07-15T11:35:21.433Z,33.91
2018-07-15T11:36:21.463Z,33.78
2018-07-15T11:37:21.436Z,33.93
2018-07-15T11:38:21.443Z,34.06
2018-07-15T11:39:21.447Z,34.15
2018-07-15T11:40:21.460Z,34.40
2018-07-15T11:41:21.446Z,34.73
2018-07-15T11:42:21.452Z,34.81
2018-07-15T11:43:21.455Z,34.70
2018-07-15T11:44:21.454Z,34.31
2018-07-15T11:45:21.477Z,34.25
2018-07-15T11:46:21.482Z,34.08
2018-07-15T11:47:21.477Z,34.43
2018-07-15T11:48:21.489Z,34.72
2018-07-15T11:49:21.474Z,34.62
2018-07-15T11:50:21.478Z,34.89
2018-07-15T11:51:21.500Z,34.80
2018-07-15T11:52:21.521Z,34.97
2018-07-15T11:53:21.498Z,34.28
2018-07-15T11:54:21.539Z,34.00
2018-07-15T11:55:21.487Z,34.05
2018-07-15T11:56:21.497Z,34.13
2018-07-15T11:57:21.514Z,34.10
2018-07-15T11:58:21.498Z,34.17
2018-07-15T11:59:21.501Z,34.35
2018-07-15T12:00:21.510Z,34.64
2018-07-15T12:01:24.038Z,34.87
2018-07-15T12:02:21.514Z,35.02
2018-07-15T12:03:21.514Z,34.70
2018-07-15T12:04:21.516Z,34.73
2018-07-15T12:05:21.531Z,34.58
2018-07-15T12:06:21.519Z,34.50
2018-07-15T12:07:21.537Z,34.69
2018-07-15T12:08:21.526Z,34.44
2018-07-15T12:09:21.529Z,34.42
2018-07-15T12:10:21.540Z,34.39
2018-07-15T12:11:21.555Z,34.47
2018-07-15T12:12:21.542Z,33.93
2018-07-15T12:13:21.543Z,33.75
2018-07-15T12:14:21.551Z,33.63
2018-07-15T12:15:21.566Z,33.66
2018-07-15T12:16:21.555Z,33.60
2018-07-15T12:17:21.571Z,33.51
2018-07-15T12:18:21.558Z,33.69
2018-07-15T12:19:21.562Z,33.84
2018-07-15T12:20:21.573Z,34.05
2018-07-15T12:21:21.563Z,33.65
2018-07-15T12:22:21.561Z,33.35
2018-07-15T12:23:21.579Z,33.53
2018-07-15T12:24:21.574Z,33.71
2018-07-15T12:25:21.571Z,33.54
2018-07-15T12:26:21.582Z,33.38
2018-07-15T12:27:21.579Z,33.29
2018-07-15T12:28:21.724Z,33.53
2018-07-15T12:29:21.588Z,33.59
2018-07-15T12:30:22.129Z,33.66
2018-07-15T12:31:21.584Z,33.71
2018-07-15T12:32:21.590Z,33.79
2018-07-15T12:33:21.608Z,33.81
2018-07-15T12:34:21.598Z,33.84
2018-07-15T12:35:21.613Z,33.84
2018-07-15T12:36:21.601Z,33.88
2018-07-15T12:37:21.629Z,33.97
2018-07-15T12:38:21.617Z,33.82
2018-07-15T12:39:21.610Z,33.66
2018-07-15T12:40:21.620Z,33.66
2018-07-15T12:41:21.633Z,33.54
2018-07-15T12:42:21.613Z,33.35
2018-07-15T12:43:21.661Z,33.32
2018-07-15T12:44:21.616Z,33.32
2018-07-15T12:45:21.617Z,33.35
2018-07-15T12:46:21.631Z,33.51
2018-07-15T12:47:21.641Z,32.66
2018-07-15T12:48:21.625Z,32.59
2018-07-15T12:49:21.626Z,32.70
2018-07-15T12:50:21.629Z,32.82
2018-07-15T12:51:21.629Z,32.82
2018-07-15T12:52:21.650Z,32.89